createdAt,value
2019-04-30T00:00:58.312Z,9.02
2019-04-30T00:01:58.943Z,9.04
2019-04-30T00:02:58.308Z,8.89
2019-04-30T00:03:59.412Z,8.96
2019-04-30T00:04:58.267Z,8.91
2019-04-30T00:05:58.256Z,8.89
2019-04-30T00:06:59.010Z,8.81
2019-04-30T00:07:58.753Z,8.87
2019-04-30T00:08:58.221Z,8.80
2019-04-30T00:09:58.213Z,8.80
2019-04-30T00:10:58.200Z,8.80
2019-04-30T00:12:01.259Z,8.70
2019-04-30T00:12:58.174Z,8.68
2019-04-30T00:13:58.928Z,8.70
2019-04-30T00:14:58.156Z,8.63
2019-04-30T00:16:01.488Z,8.63
2019-04-30T00:16:58.132Z,8.55
2019-04-30T00:18:01.781Z,8.66
2019-04-30T00:19:00.765Z,8.53
2019-04-30T00:19:59.708Z,8.55
2019-04-30T00:20:58.091Z,8.56
2019-04-30T00:22:00.472Z,8.43
2019-04-30T00:22:58.067Z,8.41
2019-04-30T00:24:00.699Z,8.41
2019-04-30T00:24:59.048Z,8.41
2019-04-30T00:26:05.187Z,8.43
2019-04-30T00:26:59.019Z,8.40
2019-04-30T00:28:00.353Z,8.48
2019-04-30T00:28:59.025Z,8.47
2019-04-30T00:30:00.416Z,8.43
2019-04-30T00:30:58.974Z,8.43
2019-04-30T00:32:04.309Z,8.47
2019-04-30T00:32:58.954Z,8.45
2019-04-30T00:34:01.354Z,8.45
2019-04-30T00:34:57.946Z,8.43
2019-04-30T00:35:58.184Z,8.44
2019-04-30T00:36:57.909Z,8.41
2019-04-30T00:38:00.182Z,8.40
2019-04-30T00:38:57.890Z,8.41
2019-04-30T00:39:57.890Z,8.45
2019-04-30T00:41:01.935Z,8.41
2019-04-30T00:41:58.850Z,8.44
2019-04-30T00:43:00.163Z,8.43
2019-04-30T00:43:58.830Z,8.36
2019-04-30T00:44:59.670Z,8.44
2019-04-30T00:45:58.804Z,8.45
2019-04-30T00:47:02.869Z,8.44
2019-04-30T00:47:58.782Z,8.34
2019-04-30T00:49:08.729Z,8.29
2019-04-30T00:50:00.257Z,8.26
2019-04-30T00:50:57.749Z,8.25
2019-04-30T00:51:58.345Z,8.33
2019-04-30T00:52:57.902Z,8.23
2019-04-30T00:53:57.717Z,8.23
2019-04-30T00:55:00.453Z,8.25
2019-04-30T00:55:58.711Z,8.28
2019-04-30T00:57:03.603Z,8.22
2019-04-30T00:57:58.669Z,8.33
2019-04-30T00:59:02.131Z,8.29
2019-04-30T00:59:58.648Z,8.29
2019-04-30T01:00:59.710Z,8.33
2019-04-30T01:01:58.627Z,8.29
2019-04-30T01:03:00.943Z,8.29
2019-04-30T01:03:58.603Z,8.18
2019-04-30T01:05:04.835Z,8.28
2019-04-30T01:05:58.613Z,8.23
2019-04-30T01:07:00.303Z,8.26
2019-04-30T01:07:58.562Z,8.33
2019-04-30T01:08:58.308Z,8.26
2019-04-30T01:09:58.535Z,8.28
2019-04-30T01:10:59.746Z,8.29
2019-04-30T01:11:58.535Z,8.23
2019-04-30T01:12:59.785Z,8.26
2019-04-30T01:13:59.087Z,8.25
2019-04-30T01:14:59.036Z,8.16
2019-04-30T01:15:58.764Z,8.16
2019-04-30T01:16:59.304Z,8.10
2019-04-30T01:17:59.286Z,8.07
2019-04-30T01:18:58.621Z,8.12
2019-04-30T01:19:59.146Z,8.08
2019-04-30T01:20:58.705Z,8.11
2019-04-30T01:21:59.373Z,8.11
2019-04-30T01:22:58.649Z,8.04
2019-04-30T01:23:59.037Z,7.95
2019-04-30T01:25:01.343Z,8.00
2019-04-30T01:25:58.595Z,8.07
2019-04-30T01:27:02.093Z,8.02
2019-04-30T01:27:58.613Z,8.07
2019-04-30T01:29:00.418Z,8.00
2019-04-30T01:29:58.503Z,8.05
2019-04-30T01:30:58.829Z,8.04
2019-04-30T01:31:58.609Z,8.02
2019-04-30T01:32:58.816Z,7.98
2019-04-30T01:33:58.967Z,8.02
2019-04-30T01:34:58.893Z,8.04
2019-04-30T01:35:57.242Z,7.95
2019-04-30T01:36:58.908Z,7.90
2019-04-30T01:37:57.235Z,7.92
2019-04-30T01:38:57.207Z,7.82
2019-04-30T01:39:58.777Z,7.87
2019-04-30T01:40:57.186Z,7.85
2019-04-30T01:41:58.681Z,7.86
2019-04-30T01:42:57.191Z,7.86
2019-04-30T01:43:58.491Z,7.83
2019-04-30T01:44:58.853Z,7.83
2019-04-30T01:46:03.244Z,7.87
2019-04-30T01:46:58.827Z,7.86
2019-04-30T01:48:00.711Z,7.92
2019-04-30T01:48:58.845Z,7.89
2019-04-30T01:50:01.003Z,7.92
2019-04-30T01:50:58.670Z,7.85
2019-04-30T01:51:58.490Z,7.80
2019-04-30T01:52:58.694Z,7.72
2019-04-30T01:53:57.070Z,7.74
2019-04-30T01:54:58.650Z,7.83
2019-04-30T01:55:57.014Z,7.77
2019-04-30T01:56:57.004Z,7.74
2019-04-30T01:57:59.067Z,7.68
2019-04-30T01:58:56.983Z,7.77
2019-04-30T01:59:58.289Z,7.75
2019-04-30T02:00:56.967Z,7.75
2019-04-30T02:01:58.546Z,7.72
2019-04-30T02:02:56.935Z,7.75
2019-04-30T02:03:58.532Z,7.64
2019-04-30T02:04:59.028Z,7.72
2019-04-30T02:05:56.901Z,7.63
2019-04-30T02:06:56.894Z,7.58
2019-04-30T02:07:58.542Z,7.57
2019-04-30T02:08:56.869Z,7.63
2019-04-30T02:09:58.358Z,7.57
2019-04-30T02:10:56.845Z,7.57
2019-04-30T02:11:56.834Z,7.49
2019-04-30T02:12:56.823Z,7.52
2019-04-30T02:13:56.810Z,7.50
2019-04-30T02:14:56.801Z,7.40
2019-04-30T02:15:59.082Z,7.50
2019-04-30T02:16:56.782Z,7.42
2019-04-30T02:17:58.293Z,7.49
2019-04-30T02:18:56.758Z,7.40
2019-04-30T02:19:57.399Z,7.42
2019-04-30T02:20:56.750Z,7.55
2019-04-30T02:21:58.490Z,7.50
2019-04-30T02:22:58.709Z,7.48
2019-04-30T02:23:56.702Z,7.58
2019-04-30T02:24:58.553Z,7.55
2019-04-30T02:25:58.830Z,7.46
2019-04-30T02:26:56.664Z,7.50
2019-04-30T02:27:56.652Z,7.42
2019-04-30T02:28:56.643Z,7.50
2019-04-30T02:29:56.636Z,7.46
2019-04-30T02:30:56.652Z,7.39
2019-04-30T02:31:56.610Z,7.42
2019-04-30T02:33:00.102Z,7.40
2019-04-30T02:33:56.595Z,7.39
2019-04-30T02:34:56.580Z,7.39
2019-04-30T02:35:56.592Z,7.32
2019-04-30T02:36:56.555Z,7.31
2019-04-30T02:37:56.541Z,7.35
2019-04-30T02:39:02.252Z,7.32
2019-04-30T02:40:00.564Z,7.34
2019-04-30T02:40:56.510Z,7.35
2019-04-30T02:41:56.511Z,7.34
2019-04-30T02:42:58.969Z,7.39
2019-04-30T02:43:59.821Z,7.35
2019-04-30T02:44:56.462Z,7.32
2019-04-30T02:45:56.452Z,7.34
2019-04-30T02:46:56.454Z,7.32
2019-04-30T02:47:56.442Z,7.34
2019-04-30T02:48:59.469Z,7.28
2019-04-30T02:50:11.473Z,7.24
2019-04-30T02:51:00.048Z,7.25
2019-04-30T02:51:56.404Z,7.25
2019-04-30T02:52:56.372Z,7.20
2019-04-30T02:53:56.363Z,7.24
2019-04-30T02:54:56.348Z,7.23
2019-04-30T02:55:56.340Z,7.20
2019-04-30T02:56:56.347Z,7.12
2019-04-30T02:57:56.329Z,7.03
2019-04-30T02:58:56.304Z,7.09
2019-04-30T02:59:56.296Z,7.03
2019-04-30T03:00:56.282Z,6.98
2019-04-30T03:01:56.299Z,7.07
2019-04-30T03:02:56.260Z,6.94
2019-04-30T03:03:56.248Z,6.95
2019-04-30T03:04:56.242Z,6.95
2019-04-30T03:05:56.224Z,6.97
2019-04-30T03:06:56.214Z,6.92
2019-04-30T03:07:56.224Z,6.94
2019-04-30T03:08:56.191Z,6.97
2019-04-30T03:09:56.181Z,6.99
2019-04-30T03:10:56.168Z,6.98
2019-04-30T03:11:56.156Z,6.97
2019-04-30T03:12:56.164Z,7.05
2019-04-30T03:13:56.134Z,6.98
2019-04-30T03:14:56.126Z,7.07
2019-04-30T03:15:56.114Z,6.95
2019-04-30T03:16:56.104Z,6.98
2019-04-30T03:17:56.111Z,7.06
2019-04-30T03:18:56.079Z,7.05
2019-04-30T03:19:56.066Z,6.94
2019-04-30T03:20:56.061Z,6.94
2019-04-30T03:21:56.048Z,7.02
2019-04-30T03:22:56.064Z,7.02
2019-04-30T03:23:56.022Z,6.92
2019-04-30T03:24:56.011Z,7.02
2019-04-30T03:25:55.999Z,7.02
2019-04-30T03:26:56.007Z,6.92
2019-04-30T03:27:55.978Z,6.88
2019-04-30T03:28:55.980Z,6.85
2019-04-30T03:29:55.956Z,6.88
2019-04-30T03:30:57.496Z,6.81
2019-04-30T03:31:55.933Z,6.85
2019-04-30T03:32:57.150Z,6.84
2019-04-30T03:33:55.929Z,6.92
2019-04-30T03:34:55.899Z,6.85
2019-04-30T03:35:55.890Z,6.80
2019-04-30T03:36:55.880Z,6.85
2019-04-30T03:37:55.865Z,6.80
2019-04-30T03:38:55.868Z,6.84
2019-04-30T03:39:55.849Z,6.84
2019-04-30T03:40:55.828Z,6.71
2019-04-30T03:41:55.819Z,6.70
2019-04-30T03:42:55.807Z,6.62
2019-04-30T03:43:55.826Z,6.74
2019-04-30T03:44:55.788Z,6.70
2019-04-30T03:45:55.773Z,6.71
2019-04-30T03:46:55.761Z,6.79
2019-04-30T03:47:55.752Z,6.71
2019-04-30T03:48:55.739Z,6.77
2019-04-30T03:49:55.759Z,6.84
2019-04-30T03:50:56.919Z,6.74
2019-04-30T03:51:55.706Z,6.66
2019-04-30T03:52:55.695Z,6.67
2019-04-30T03:53:55.697Z,6.69
2019-04-30T03:54:55.673Z,6.67
2019-04-30T03:55:55.689Z,6.67
2019-04-30T03:56:55.660Z,6.54
2019-04-30T03:57:55.638Z,6.62
2019-04-30T03:58:55.628Z,6.66
2019-04-30T03:59:55.617Z,6.43
2019-04-30T04:00:55.605Z,6.51
2019-04-30T04:01:55.610Z,6.59
2019-04-30T04:02:55.583Z,6.51
2019-04-30T04:03:55.581Z,6.56
2019-04-30T04:04:55.559Z,6.51
2019-04-30T04:05:55.549Z,6.61
2019-04-30T04:06:55.555Z,6.61
2019-04-30T04:07:55.526Z,6.54
2019-04-30T04:08:55.514Z,6.55
2019-04-30T04:09:55.503Z,6.51
2019-04-30T04:10:55.492Z,6.58
2019-04-30T04:11:55.496Z,6.54
2019-04-30T04:12:55.469Z,6.56
2019-04-30T04:13:55.462Z,6.62
2019-04-30T04:14:55.449Z,6.69
2019-04-30T04:15:55.435Z,6.71
2019-04-30T04:16:55.452Z,6.69
2019-04-30T04:17:55.413Z,6.69
2019-04-30T04:18:55.402Z,6.67
2019-04-30T04:19:55.390Z,6.71
2019-04-30T04:21:08.703Z,6.67
2019-04-30T04:21:56.399Z,6.73
2019-04-30T04:22:55.356Z,6.70
2019-04-30T04:23:55.349Z,6.69
2019-04-30T04:24:55.336Z,6.66
2019-04-30T04:25:55.321Z,6.66
2019-04-30T04:26:55.311Z,6.70
2019-04-30T04:27:55.327Z,6.81
2019-04-30T04:28:55.290Z,6.84
2019-04-30T04:29:55.276Z,6.84
2019-04-30T04:30:55.269Z,6.87
2019-04-30T04:31:55.253Z,6.79
2019-04-30T04:32:55.243Z,6.80
2019-04-30T04:33:55.261Z,6.73
2019-04-30T04:34:55.224Z,6.74
2019-04-30T04:35:55.211Z,6.73
2019-04-30T04:36:55.199Z,6.77
2019-04-30T04:37:55.187Z,6.71
2019-04-30T04:38:55.176Z,6.80
2019-04-30T04:39:55.191Z,6.85
2019-04-30T04:40:55.159Z,6.95
2019-04-30T04:41:55.142Z,6.89
2019-04-30T04:42:55.130Z,6.85
2019-04-30T04:43:55.121Z,6.87
2019-04-30T04:44:55.154Z,6.84
2019-04-30T04:45:55.097Z,6.89
2019-04-30T04:46:55.084Z,6.87
2019-04-30T04:47:55.074Z,6.92
2019-04-30T04:48:55.064Z,6.97
2019-04-30T04:49:55.052Z,6.95
2019-04-30T04:50:55.067Z,6.94
2019-04-30T04:51:55.028Z,7.05
2019-04-30T04:52:55.025Z,7.07
2019-04-30T04:53:55.010Z,7.07
2019-04-30T04:54:55.018Z,7.17
2019-04-30T04:55:54.984Z,7.24
2019-04-30T04:57:11.150Z,7.24
2019-04-30T04:57:55.961Z,7.34
2019-04-30T04:58:54.950Z,7.32
2019-04-30T04:59:54.942Z,7.34
2019-04-30T05:00:54.955Z,7.48
2019-04-30T05:01:54.916Z,7.49
2019-04-30T05:02:54.907Z,7.49
2019-04-30T05:03:54.893Z,7.63
2019-04-30T05:04:54.882Z,7.64
2019-04-30T05:05:54.877Z,7.63
2019-04-30T05:06:54.886Z,7.64
2019-04-30T05:07:54.847Z,7.74
2019-04-30T05:08:54.836Z,7.86
2019-04-30T05:09:54.826Z,7.92
2019-04-30T05:10:54.822Z,7.87
2019-04-30T05:11:54.818Z,7.83
2019-04-30T05:12:54.791Z,8.00
2019-04-30T05:13:54.780Z,8.05
2019-04-30T05:14:54.770Z,8.01
2019-04-30T05:15:54.756Z,8.01
2019-04-30T05:16:54.763Z,8.04
2019-04-30T05:17:54.735Z,8.02
2019-04-30T05:18:54.723Z,8.02
2019-04-30T05:19:54.713Z,7.98
2019-04-30T05:20:54.700Z,8.12
2019-04-30T05:21:54.717Z,8.20
2019-04-30T05:22:54.682Z,8.12
2019-04-30T05:23:54.672Z,8.11
2019-04-30T05:24:54.657Z,8.12
2019-04-30T05:25:54.644Z,8.22
2019-04-30T05:26:54.636Z,8.26
2019-04-30T05:27:54.637Z,8.22
2019-04-30T05:28:54.612Z,8.23
2019-04-30T05:29:54.604Z,8.36
2019-04-30T05:30:54.604Z,8.40
2019-04-30T05:31:54.577Z,8.43
2019-04-30T05:32:54.581Z,8.40
2019-04-30T05:33:54.556Z,8.45
2019-04-30T05:34:54.544Z,8.45
2019-04-30T05:35:54.532Z,8.53
2019-04-30T05:36:54.521Z,8.68
2019-04-30T05:37:54.538Z,8.79
2019-04-30T05:38:54.499Z,8.62
2019-04-30T05:39:54.486Z,8.70
2019-04-30T05:40:54.476Z,8.62
2019-04-30T05:41:54.476Z,8.58
2019-04-30T05:42:54.453Z,8.53
2019-04-30T05:43:54.462Z,8.71
2019-04-30T05:44:54.430Z,8.89
2019-04-30T05:45:54.424Z,8.91
2019-04-30T05:46:54.407Z,8.94
2019-04-30T05:47:54.397Z,9.05
2019-04-30T05:48:54.402Z,9.05
2019-04-30T05:49:54.382Z,9.13
2019-04-30T05:50:56.214Z,9.24
2019-04-30T05:51:55.887Z,9.28
2019-04-30T05:52:54.341Z,9.36
2019-04-30T05:53:54.350Z,9.40
2019-04-30T05:54:54.319Z,9.57
2019-04-30T05:55:54.309Z,9.51
2019-04-30T05:56:54.295Z,9.76
2019-04-30T05:57:56.352Z,9.71
2019-04-30T05:58:54.301Z,9.64
2019-04-30T05:59:54.262Z,9.61
2019-04-30T06:00:54.251Z,9.58
2019-04-30T06:01:54.247Z,9.58
2019-04-30T06:02:54.229Z,9.69
2019-04-30T06:03:54.219Z,9.71
2019-04-30T06:04:54.221Z,9.66
2019-04-30T06:05:54.193Z,9.71
2019-04-30T06:06:54.181Z,9.61
2019-04-30T06:07:55.473Z,9.65
2019-04-30T06:09:03.989Z,9.69
2019-04-30T06:09:55.166Z,9.79
2019-04-30T06:10:54.138Z,9.86
2019-04-30T06:11:54.125Z,9.84
2019-04-30T06:12:54.113Z,9.81
2019-04-30T06:13:54.104Z,9.96
2019-04-30T06:14:54.121Z,10.04
2019-04-30T06:15:54.081Z,10.11
2019-04-30T06:16:54.071Z,10.12
2019-04-30T06:18:00.907Z,10.23
2019-04-30T06:18:55.046Z,10.22
2019-04-30T06:19:54.035Z,10.09
2019-04-30T06:20:54.041Z,10.14
2019-04-30T06:22:05.077Z,10.09
2019-04-30T06:22:55.001Z,10.09
2019-04-30T06:23:53.992Z,10.27
2019-04-30T06:24:53.980Z,10.32
2019-04-30T06:25:59.585Z,10.44
2019-04-30T06:26:54.958Z,10.42
2019-04-30T06:27:53.945Z,10.38
2019-04-30T06:28:53.935Z,10.29
2019-04-30T06:29:53.925Z,10.42
2019-04-30T06:30:53.931Z,10.53
2019-04-30T06:31:53.903Z,10.63
2019-04-30T06:32:53.893Z,10.71
2019-04-30T06:33:53.880Z,10.74
2019-04-30T06:34:53.868Z,10.84
2019-04-30T06:35:53.876Z,10.86
2019-04-30T06:36:55.651Z,10.86
2019-04-30T06:37:53.839Z,10.71
2019-04-30T06:38:53.822Z,10.79
2019-04-30T06:39:53.812Z,10.86
2019-04-30T06:40:53.818Z,10.92
2019-04-30T06:42:04.129Z,11.00
2019-04-30T06:42:54.776Z,11.06
2019-04-30T06:43:53.766Z,11.27
2019-04-30T06:44:53.754Z,11.32
2019-04-30T06:45:53.763Z,11.46
2019-04-30T06:46:53.732Z,11.58
2019-04-30T06:47:53.720Z,11.60
2019-04-30T06:48:53.711Z,11.54
2019-04-30T06:49:53.698Z,11.60
2019-04-30T06:50:53.718Z,11.62
2019-04-30T06:51:53.675Z,11.55
2019-04-30T06:52:56.822Z,11.72
2019-04-30T06:53:53.654Z,11.73
2019-04-30T06:54:53.642Z,11.79
2019-04-30T06:55:53.630Z,11.80
2019-04-30T06:56:53.636Z,11.76
2019-04-30T06:57:53.607Z,11.95
2019-04-30T06:58:53.595Z,12.12
2019-04-30T06:59:53.584Z,12.13
2019-04-30T07:00:53.574Z,12.23
2019-04-30T07:01:53.580Z,12.24
2019-04-30T07:02:53.550Z,12.35
2019-04-30T07:03:53.538Z,12.42
2019-04-30T07:04:53.534Z,12.39
2019-04-30T07:05:53.517Z,12.34
2019-04-30T07:06:53.521Z,12.39
2019-04-30T07:08:02.234Z,12.57
2019-04-30T07:08:55.881Z,12.60
2019-04-30T07:09:58.317Z,12.87
2019-04-30T07:10:59.942Z,12.92
2019-04-30T07:11:54.490Z,12.96
2019-04-30T07:12:53.437Z,12.96
2019-04-30T07:13:53.425Z,12.96
2019-04-30T07:14:53.415Z,13.08
2019-04-30T07:15:53.405Z,13.25
2019-04-30T07:16:53.412Z,13.15
2019-04-30T07:17:53.382Z,13.07
2019-04-30T07:18:53.378Z,13.04
2019-04-30T07:19:56.716Z,13.07
2019-04-30T07:20:53.349Z,13.03
2019-04-30T07:21:53.363Z,13.05
2019-04-30T07:23:00.296Z,13.08
2019-04-30T07:23:54.313Z,13.20
2019-04-30T07:24:53.304Z,13.08
2019-04-30T07:25:53.293Z,13.14
2019-04-30T07:26:54.719Z,13.14
2019-04-30T07:27:54.286Z,13.30
2019-04-30T07:29:54.245Z,13.32
2019-04-30T07:31:54.222Z,13.33
2019-04-30T07:32:53.233Z,13.33
2019-04-30T07:33:54.059Z,13.42
2019-04-30T07:34:53.190Z,13.46
2019-04-30T07:35:53.179Z,13.42
2019-04-30T07:37:10.786Z,13.49
2019-04-30T07:37:54.477Z,13.57
2019-04-30T07:38:56.672Z,13.64
2019-04-30T07:39:53.134Z,13.51
2019-04-30T07:40:53.126Z,13.57
2019-04-30T07:41:53.115Z,13.69
2019-04-30T07:42:53.099Z,13.75
2019-04-30T07:43:53.614Z,13.95
2019-04-30T07:44:53.082Z,13.97
2019-04-30T07:45:53.065Z,14.18
2019-04-30T07:46:53.055Z,14.29
2019-04-30T07:47:53.043Z,14.14
2019-04-30T07:48:53.063Z,14.02
2019-04-30T07:49:55.907Z,13.89
2019-04-30T07:50:53.010Z,13.78
2019-04-30T07:51:53.493Z,14.00
2019-04-30T07:53:02.534Z,14.04
2019-04-30T07:53:54.005Z,14.02
2019-04-30T07:54:52.965Z,14.04
2019-04-30T07:55:52.966Z,14.10
2019-04-30T07:56:52.965Z,14.27
2019-04-30T07:57:52.932Z,14.28
2019-04-30T07:58:52.923Z,14.39
2019-04-30T07:59:52.945Z,14.29
2019-04-30T08:00:56.297Z,14.45
2019-04-30T08:02:04.006Z,14.54
2019-04-30T08:02:53.880Z,14.55
2019-04-30T08:03:53.164Z,14.52
2019-04-30T08:04:52.856Z,14.45
2019-04-30T08:05:52.930Z,14.51
2019-04-30T08:06:52.871Z,14.61
2019-04-30T08:07:52.886Z,14.69
2019-04-30T08:08:57.301Z,14.86
2019-04-30T08:09:34.156Z,13.28
2019-04-30T08:09:36.932Z,13.36
2019-04-30T08:09:53.799Z,14.94
2019-04-30T08:10:52.821Z,15.11
2019-04-30T08:11:52.778Z,15.19
2019-04-30T08:12:53.053Z,15.34
2019-04-30T08:13:52.853Z,15.29
2019-04-30T08:14:52.750Z,15.47
2019-04-30T08:15:52.735Z,15.49
2019-04-30T08:16:52.753Z,15.38
2019-04-30T08:18:02.814Z,15.29
2019-04-30T08:18:53.702Z,15.17
2019-04-30T08:19:52.693Z,14.98
2019-04-30T08:20:52.678Z,15.11
2019-04-30T08:21:52.668Z,15.14
2019-04-30T08:22:52.689Z,15.34
2019-04-30T08:23:52.649Z,15.35
2019-04-30T08:24:52.636Z,15.23
2019-04-30T08:25:52.626Z,15.27
2019-04-30T08:26:52.614Z,15.29
2019-04-30T08:27:52.605Z,15.39
2019-04-30T08:28:52.610Z,15.51
2019-04-30T08:29:52.586Z,15.68
2019-04-30T08:30:52.570Z,15.74
2019-04-30T08:31:52.573Z,15.68
2019-04-30T08:32:52.547Z,15.54
2019-04-30T08:33:52.570Z,15.54
2019-04-30T08:34:52.533Z,15.57
2019-04-30T08:35:52.514Z,15.74
2019-04-30T08:36:53.318Z,15.84
2019-04-30T08:37:52.492Z,15.96
2019-04-30T08:38:52.483Z,16.05
2019-04-30T08:39:52.498Z,16.02
2019-04-30T08:40:56.102Z,16.11
2019-04-30T08:41:53.451Z,16.17
2019-04-30T08:42:52.435Z,16.14
2019-04-30T08:43:52.422Z,16.15
2019-04-30T08:44:52.413Z,16.25
2019-04-30T08:45:52.417Z,16.41
2019-04-30T08:46:52.391Z,16.52
2019-04-30T08:47:52.380Z,16.57
2019-04-30T08:48:53.821Z,16.67
2019-04-30T08:49:52.357Z,16.86
2019-04-30T08:50:52.372Z,16.70
2019-04-30T08:51:52.345Z,16.50
2019-04-30T08:52:52.326Z,16.27
2019-04-30T08:53:52.312Z,16.08
2019-04-30T08:54:52.308Z,15.82
2019-04-30T08:55:52.290Z,15.89
2019-04-30T08:56:52.310Z,15.72
2019-04-30T08:57:52.267Z,15.43
2019-04-30T08:58:54.789Z,15.32
2019-04-30T08:59:52.247Z,15.47
2019-04-30T09:00:52.235Z,15.49
2019-04-30T09:01:52.224Z,15.43
2019-04-30T09:02:52.240Z,15.56
2019-04-30T09:03:52.200Z,15.65
2019-04-30T09:04:52.194Z,15.71
2019-04-30T09:05:52.181Z,15.86
2019-04-30T09:06:52.169Z,15.92
2019-04-30T09:07:52.160Z,16.05
2019-04-30T09:08:52.162Z,16.02
2019-04-30T09:09:52.135Z,15.74
2019-04-30T09:10:52.124Z,15.68
2019-04-30T09:11:55.669Z,15.87
2019-04-30T09:12:52.138Z,15.87
2019-04-30T09:13:52.122Z,16.04
2019-04-30T09:14:52.080Z,15.80
2019-04-30T09:15:52.069Z,15.92
2019-04-30T09:16:52.079Z,16.04
2019-04-30T09:18:00.807Z,16.14
2019-04-30T09:18:53.063Z,16.17
2019-04-30T09:19:52.024Z,16.43
2019-04-30T09:20:52.011Z,16.52
2019-04-30T09:21:52.001Z,16.71
2019-04-30T09:22:51.989Z,16.68
2019-04-30T09:23:52.768Z,16.79
2019-04-30T09:24:51.994Z,16.81
2019-04-30T09:25:51.958Z,16.79
2019-04-30T09:26:51.946Z,16.85
2019-04-30T09:27:51.933Z,17.00
2019-04-30T09:28:51.921Z,17.04
2019-04-30T09:29:51.909Z,17.08
2019-04-30T09:30:51.928Z,17.04
2019-04-30T09:31:51.887Z,17.12
2019-04-30T09:32:51.876Z,17.06
2019-04-30T09:33:51.868Z,17.04
2019-04-30T09:34:51.854Z,17.18
2019-04-30T09:35:51.844Z,17.28
2019-04-30T09:36:51.848Z,17.18
2019-04-30T09:37:59.023Z,17.37
2019-04-30T09:38:52.808Z,17.59
2019-04-30T09:39:51.800Z,17.93
2019-04-30T09:40:51.789Z,18.26
2019-04-30T09:41:51.792Z,18.87
2019-04-30T09:42:51.766Z,19.43
2019-04-30T09:43:51.753Z,19.98
2019-04-30T09:44:54.252Z,20.55
2019-04-30T09:45:51.733Z,20.92
2019-04-30T09:46:51.746Z,21.64
2019-04-30T09:47:51.708Z,22.30
2019-04-30T09:48:51.702Z,22.76
2019-04-30T09:49:51.685Z,23.38
2019-04-30T09:50:51.875Z,23.83
2019-04-30T09:51:51.958Z,24.20
2019-04-30T09:52:51.898Z,24.78
2019-04-30T09:53:58.592Z,25.18
2019-04-30T09:54:52.829Z,25.28
2019-04-30T09:55:51.629Z,25.55
2019-04-30T09:56:52.777Z,25.67
2019-04-30T09:57:51.594Z,25.90
2019-04-30T09:58:51.600Z,26.36
2019-04-30T09:59:51.572Z,26.47
2019-04-30T10:00:51.562Z,26.77
2019-04-30T10:01:51.550Z,26.87
2019-04-30T10:02:51.539Z,26.67
2019-04-30T10:03:52.029Z,26.65
2019-04-30T10:04:51.851Z,26.73
2019-04-30T10:05:51.509Z,27.02
2019-04-30T10:06:51.502Z,26.75
2019-04-30T10:07:51.488Z,26.72
2019-04-30T10:08:51.485Z,26.35
2019-04-30T10:09:51.493Z,25.08
2019-04-30T10:10:51.452Z,24.90
2019-04-30T10:11:51.439Z,24.73
2019-04-30T10:12:51.432Z,25.03
2019-04-30T10:13:51.419Z,25.46
2019-04-30T10:14:51.431Z,25.92
2019-04-30T10:15:51.425Z,26.40
2019-04-30T10:16:51.387Z,26.85
2019-04-30T10:17:51.376Z,27.27
2019-04-30T10:18:51.363Z,27.55
2019-04-30T10:19:51.353Z,28.04
2019-04-30T10:20:51.341Z,28.25
2019-04-30T10:21:51.348Z,28.40
2019-04-30T10:22:51.321Z,28.64
2019-04-30T10:23:51.311Z,28.98
2019-04-30T10:24:51.299Z,29.21
2019-04-30T10:25:51.292Z,29.23
2019-04-30T10:26:51.307Z,29.30
2019-04-30T10:27:51.278Z,29.39
2019-04-30T10:28:51.258Z,29.57
2019-04-30T10:29:51.245Z,29.49
2019-04-30T10:30:51.233Z,29.18
2019-04-30T10:31:51.225Z,29.28
2019-04-30T10:32:51.657Z,29.00
2019-04-30T10:33:51.204Z,28.54
2019-04-30T10:34:51.195Z,28.27
2019-04-30T10:35:51.181Z,27.75
2019-04-30T10:36:51.177Z,27.34
2019-04-30T10:37:51.159Z,27.54
2019-04-30T10:38:51.180Z,27.72
2019-04-30T10:39:51.163Z,28.24
2019-04-30T10:40:51.128Z,28.43
2019-04-30T10:41:51.119Z,28.66
2019-04-30T10:42:51.118Z,29.05
2019-04-30T10:43:51.122Z,29.06
2019-04-30T10:44:51.084Z,29.23
2019-04-30T10:45:51.072Z,29.24
2019-04-30T10:46:51.063Z,29.19
2019-04-30T10:47:51.052Z,29.37
2019-04-30T10:48:51.041Z,29.28
2019-04-30T10:49:51.057Z,29.52
2019-04-30T10:50:51.018Z,29.95
2019-04-30T10:51:51.007Z,29.58
2019-04-30T10:52:50.998Z,29.65
2019-04-30T10:53:50.999Z,29.63
2019-04-30T10:54:50.975Z,29.71
2019-04-30T10:55:50.994Z,29.76
2019-04-30T10:56:51.357Z,30.22
2019-04-30T10:57:50.944Z,30.49
2019-04-30T10:58:50.963Z,30.69
2019-04-30T10:59:50.921Z,30.08
2019-04-30T11:00:50.935Z,29.98
2019-04-30T11:01:50.920Z,30.02
2019-04-30T11:02:50.891Z,30.24
2019-04-30T11:03:50.883Z,29.55
2019-04-30T11:04:50.870Z,29.61
2019-04-30T11:05:50.908Z,29.78
2019-04-30T11:06:50.882Z,29.78
2019-04-30T11:07:50.839Z,29.73
2019-04-30T11:08:50.829Z,29.65
2019-04-30T11:09:50.817Z,29.31
2019-04-30T11:10:50.809Z,29.31
2019-04-30T11:11:50.798Z,29.48
2019-04-30T11:12:50.806Z,29.55
2019-04-30T11:13:50.779Z,29.76
2019-04-30T11:14:50.765Z,29.85
2019-04-30T11:15:50.784Z,29.86
2019-04-30T11:16:51.592Z,29.94
2019-04-30T11:17:50.873Z,30.22
2019-04-30T11:18:50.928Z,30.42
2019-04-30T11:19:50.991Z,30.86
2019-04-30T11:20:50.911Z,31.20
2019-04-30T11:21:50.896Z,31.78
2019-04-30T11:22:50.830Z,31.81
2019-04-30T11:23:50.931Z,31.70
2019-04-30T11:24:58.416Z,31.76
2019-04-30T11:25:52.299Z,31.73
2019-04-30T11:26:51.480Z,31.93
2019-04-30T11:27:51.425Z,32.06
2019-04-30T11:28:50.775Z,32.15
2019-04-30T11:29:50.839Z,32.01
2019-04-30T11:30:50.820Z,32.03
2019-04-30T11:31:50.811Z,32.11
2019-04-30T11:32:50.738Z,31.96
2019-04-30T11:33:50.828Z,32.01
2019-04-30T11:34:50.561Z,31.80
2019-04-30T11:36:02.098Z,31.32
2019-04-30T11:36:51.566Z,30.86
2019-04-30T11:37:50.528Z,30.67
2019-04-30T11:38:50.517Z,30.45
2019-04-30T11:39:50.507Z,30.53
2019-04-30T11:40:50.499Z,30.64
2019-04-30T11:41:50.486Z,30.24
2019-04-30T11:42:50.494Z,29.90
2019-04-30T11:43:50.466Z,30.10
2019-04-30T11:44:50.454Z,29.97
2019-04-30T11:45:50.445Z,30.02
2019-04-30T11:46:50.433Z,29.85
2019-04-30T11:47:53.550Z,30.07
2019-04-30T11:48:50.425Z,29.85
2019-04-30T11:49:50.403Z,29.94
2019-04-30T11:50:50.394Z,30.26
2019-04-30T11:51:50.384Z,30.24
2019-04-30T11:52:50.390Z,30.27
2019-04-30T11:53:50.362Z,30.22
2019-04-30T11:54:54.172Z,30.11
2019-04-30T11:55:50.343Z,29.98
2019-04-30T11:56:50.552Z,29.74
2019-04-30T11:57:50.334Z,29.73
2019-04-30T11:58:50.310Z,29.48
2019-04-30T11:59:50.298Z,29.43
2019-04-30T12:00:50.291Z,29.36
2019-04-30T12:01:50.275Z,29.24
2019-04-30T12:02:52.782Z,28.80
2019-04-30T12:03:50.254Z,28.30
2019-04-30T12:04:50.245Z,27.41
2019-04-30T12:05:50.233Z,26.36
2019-04-30T12:06:50.224Z,25.67
2019-04-30T12:07:50.652Z,25.13
2019-04-30T12:08:50.204Z,24.93
2019-04-30T12:09:50.190Z,24.73
2019-04-30T12:10:50.182Z,24.40
2019-04-30T12:11:50.710Z,24.00
2019-04-30T12:12:50.157Z,23.60
2019-04-30T12:13:50.165Z,23.36
2019-04-30T12:14:50.134Z,23.12
2019-04-30T12:15:50.227Z,22.95
2019-04-30T12:16:50.689Z,22.83
2019-04-30T12:17:50.105Z,22.37
2019-04-30T12:18:50.108Z,22.17
2019-04-30T12:19:50.085Z,21.90
2019-04-30T12:20:50.075Z,21.71
2019-04-30T12:21:50.062Z,21.54
2019-04-30T12:22:50.072Z,21.13
2019-04-30T12:23:50.053Z,20.87
2019-04-30T12:25:02.039Z,20.73
2019-04-30T12:25:51.014Z,20.54
2019-04-30T12:26:50.004Z,20.33
2019-04-30T12:27:49.995Z,20.36
2019-04-30T12:28:49.997Z,20.23
2019-04-30T12:29:49.973Z,20.26
2019-04-30T12:30:49.962Z,20.06
2019-04-30T12:31:49.947Z,20.13
2019-04-30T12:32:49.937Z,20.08
2019-04-30T12:33:49.955Z,20.05
2019-04-30T12:34:49.915Z,20.13
2019-04-30T12:35:51.328Z,20.18
2019-04-30T12:36:49.893Z,20.13
2019-04-30T12:37:52.406Z,20.03
2019-04-30T12:38:49.872Z,19.94
2019-04-30T12:39:49.879Z,19.94
2019-04-30T12:40:49.851Z,19.87
2019-04-30T12:41:49.836Z,19.99
2019-04-30T12:42:49.828Z,19.88
2019-04-30T12:43:49.814Z,19.88
2019-04-30T12:44:49.824Z,19.84
2019-04-30T12:46:02.029Z,19.86
2019-04-30T12:46:50.780Z,19.86
2019-04-30T12:47:49.768Z,19.87
2019-04-30T12:48:49.760Z,19.91
2019-04-30T12:49:49.776Z,19.94
2019-04-30T12:50:49.737Z,19.84
2019-04-30T12:51:50.557Z,19.86
2019-04-30T12:53:10.720Z,19.66
2019-04-30T12:53:49.704Z,19.59
2019-04-30T12:54:49.691Z,19.58
2019-04-30T12:55:49.698Z,19.68
2019-04-30T12:56:49.670Z,19.65
2019-04-30T12:57:58.569Z,19.51
2019-04-30T12:58:50.646Z,19.43
2019-04-30T12:59:49.638Z,19.43
2019-04-30T13:00:49.643Z,19.56
2019-04-30T13:01:49.650Z,19.63
2019-04-30T13:02:49.604Z,19.81
2019-04-30T13:03:58.098Z,20.39
2019-04-30T13:04:50.579Z,20.95